createdAt,value
2019-06-26T00:00:39.835Z,54.32
2019-06-26T00:03:09.911Z,54.57
2019-06-26T00:05:39.953Z,54.58
2019-06-26T00:08:10.964Z,55.53
2019-06-26T00:10:40.939Z,55.90
2019-06-26T00:13:25.218Z,56.73
2019-06-26T00:15:43.102Z,55.76
2019-06-26T00:18:13.189Z,56.04
2019-06-26T00:20:42.964Z,55.70
2019-06-26T00:23:12.859Z,56.08
2019-06-26T00:25:42.835Z,56.62
2019-06-26T00:28:13.059Z,57.28
2019-06-26T00:30:43.264Z,57.76
2019-06-26T00:33:13.057Z,56.96
2019-06-26T00:35:42.835Z,57.32
2019-06-26T00:38:12.583Z,57.21
2019-06-26T00:40:43.513Z,57.06
2019-06-26T00:43:13.291Z,57.32
2019-06-26T00:45:43.110Z,58.10
2019-06-26T00:48:12.886Z,57.67
2019-06-26T00:50:42.714Z,56.91
2019-06-26T00:53:12.415Z,56.93
2019-06-26T00:55:42.135Z,56.01
2019-06-26T00:58:12.932Z,55.51
2019-06-26T01:00:46.855Z,57.22
2019-06-26T01:03:16.636Z,56.55
2019-06-26T01:05:46.370Z,57.32
2019-06-26T01:08:16.088Z,56.97
2019-06-26T01:10:45.942Z,56.11
2019-06-26T01:13:15.640Z,56.72
2019-06-26T01:15:45.353Z,57.65
2019-06-26T01:18:15.070Z,58.51
2019-06-26T01:20:44.833Z,58.58
2019-06-26T01:23:14.537Z,58.03
2019-06-26T01:25:44.250Z,58.42
2019-06-26T01:28:13.941Z,56.74
2019-06-26T01:30:43.790Z,56.74
2019-06-26T01:33:13.641Z,56.64
2019-06-26T01:35:43.352Z,56.78
2019-06-26T01:38:14.028Z,56.66
2019-06-26T01:40:43.737Z,55.95
2019-06-26T01:43:13.442Z,55.71
2019-06-26T01:45:43.151Z,57.06
2019-06-26T01:48:12.876Z,56.56
2019-06-26T01:50:42.617Z,57.38
2019-06-26T01:53:12.334Z,57.35
2019-06-26T01:55:42.061Z,57.51
2019-06-26T01:58:11.758Z,56.73
2019-06-26T02:00:41.483Z,56.83
2019-06-26T02:03:11.267Z,56.63
2019-06-26T02:05:40.995Z,56.70
2019-06-26T02:08:10.696Z,56.89
2019-06-26T02:10:40.408Z,56.41
2019-06-26T02:13:10.129Z,56.31
2019-06-26T02:15:40.028Z,55.62
2019-06-26T02:18:28.771Z,56.36
2019-06-26T02:20:58.582Z,53.39
2019-06-26T02:23:28.467Z,53.35
2019-06-26T02:25:58.379Z,53.00
2019-06-26T02:28:28.077Z,52.27
2019-06-26T02:30:57.864Z,53.94
2019-06-26T02:33:28.756Z,54.51
2019-06-26T02:35:58.535Z,56.13
2019-06-26T02:38:28.312Z,55.34
2019-06-26T02:40:58.101Z,54.89
2019-06-26T02:43:27.825Z,54.27
2019-06-26T02:45:57.544Z,55.06
2019-06-26T02:48:27.299Z,54.71
2019-06-26T02:50:57.000Z,54.46
2019-06-26T02:53:26.729Z,54.38
2019-06-26T02:55:56.561Z,54.93
2019-06-26T02:58:26.440Z,55.54
2019-06-26T03:00:56.286Z,56.08
2019-06-26T03:03:26.003Z,54.85
2019-06-26T03:05:55.758Z,54.97
2019-06-26T03:08:25.577Z,55.20
2019-06-26T03:10:55.442Z,54.53
2019-06-26T03:13:25.320Z,56.12
2019-06-26T03:15:55.030Z,55.48
2019-06-26T03:18:24.764Z,56.03
2019-06-26T03:20:56.283Z,55.01
2019-06-26T03:23:26.092Z,55.75
2019-06-26T03:25:55.800Z,55.87
2019-06-26T03:28:25.663Z,55.78
2019-06-26T03:30:58.480Z,54.72
2019-06-26T03:33:28.311Z,55.00
2019-06-26T03:35:58.036Z,55.19
2019-06-26T03:38:27.747Z,55.44
2019-06-26T03:40:57.536Z,54.28
2019-06-26T03:43:27.301Z,54.00
2019-06-26T03:45:57.113Z,53.79
2019-06-26T03:48:26.816Z,52.89
2019-06-26T03:50:56.536Z,52.05
2019-06-26T03:53:26.307Z,51.32
2019-06-26T03:55:56.046Z,51.09
2019-06-26T03:58:25.778Z,49.96
2019-06-26T04:00:56.739Z,49.61
2019-06-26T04:03:26.470Z,48.49
2019-06-26T04:05:56.243Z,48.03
2019-06-26T04:08:25.958Z,47.48
2019-06-26T04:10:55.691Z,46.95
2019-06-26T04:13:25.454Z,46.96
2019-06-26T04:15:55.857Z,47.08
2019-06-26T04:18:25.629Z,47.29
2019-06-26T04:20:55.446Z,46.76
2019-06-26T04:23:25.172Z,45.70
2019-06-26T04:25:54.859Z,45.61
2019-06-26T04:28:24.652Z,43.75
2019-06-26T04:30:54.349Z,44.31
2019-06-26T04:33:24.090Z,42.95
2019-06-26T04:35:53.808Z,42.26
2019-06-26T04:38:23.516Z,41.07
2019-06-26T04:40:52.366Z,41.04
2019-06-26T04:43:21.941Z,40.25
2019-06-26T04:45:58.091Z,40.13
2019-06-26T04:48:23.140Z,39.42
2019-06-26T04:50:52.836Z,38.96
2019-06-26T04:53:22.613Z,38.96
2019-06-26T04:55:52.407Z,38.01
2019-06-26T04:58:22.173Z,37.38
2019-06-26T05:00:51.968Z,36.92
2019-06-26T05:03:21.702Z,36.90
2019-06-26T05:05:51.419Z,37.27
2019-06-26T05:08:21.136Z,35.92
2019-06-26T05:10:51.903Z,35.94
2019-06-26T05:13:22.577Z,35.47
2019-06-26T05:15:52.262Z,35.67
2019-06-26T05:18:22.013Z,35.86
2019-06-26T05:20:51.719Z,34.08
2019-06-26T05:23:21.487Z,34.98
2019-06-26T05:25:51.211Z,32.63
2019-06-26T05:28:20.923Z,32.66
2019-06-26T05:30:50.693Z,32.77
2019-06-26T05:33:20.366Z,32.78
2019-06-26T05:35:50.155Z,32.25
2019-06-26T05:38:19.929Z,32.18
2019-06-26T05:40:49.649Z,31.99
2019-06-26T05:43:18.650Z,32.14
2019-06-26T05:45:47.570Z,32.80
2019-06-26T05:48:16.726Z,32.27
2019-06-26T05:50:45.741Z,31.61
2019-06-26T05:53:14.561Z,31.13
2019-06-26T05:55:43.360Z,30.51
2019-06-26T05:58:12.396Z,30.45
2019-06-26T06:00:41.234Z,29.70
2019-06-26T06:03:10.040Z,29.75
2019-06-26T06:05:39.193Z,29.77
2019-06-26T06:08:08.279Z,29.44
2019-06-26T06:10:38.498Z,29.57
2019-06-26T06:13:07.338Z,29.52
2019-06-26T06:15:36.505Z,29.50
2019-06-26T06:18:05.534Z,29.15
2019-06-26T06:20:37.416Z,28.39
2019-06-26T06:23:06.337Z,27.91
2019-06-26T06:25:35.350Z,28.29
2019-06-26T06:28:04.219Z,27.57
2019-06-26T06:30:32.965Z,27.65
2019-06-26T06:33:01.699Z,28.06
2019-06-26T06:35:30.441Z,28.54
2019-06-26T06:37:59.235Z,28.45
2019-06-26T06:40:28.002Z,29.21
2019-06-26T06:42:56.974Z,30.00
2019-06-26T06:45:26.506Z,28.86
2019-06-26T06:47:55.470Z,28.91
2019-06-26T06:50:24.242Z,28.74
2019-06-26T06:52:52.968Z,28.45
2019-06-26T06:55:21.773Z,28.06
2019-06-26T06:57:50.538Z,27.19
2019-06-26T07:00:19.763Z,27.35
2019-06-26T07:02:48.499Z,27.67
2019-06-26T07:05:17.430Z,27.89
2019-06-26T07:07:46.158Z,27.34
2019-06-26T07:10:15.106Z,28.00
2019-06-26T07:12:43.979Z,28.54
2019-06-26T07:15:13.098Z,27.62
2019-06-26T07:17:41.900Z,27.73
2019-06-26T07:20:10.907Z,27.03
2019-06-26T07:22:39.638Z,27.27
2019-06-26T07:25:08.559Z,27.96
2019-06-26T07:27:37.500Z,28.44
2019-06-26T07:30:06.526Z,27.26
2019-06-26T07:32:35.336Z,26.79
2019-06-26T07:35:05.546Z,26.15
2019-06-26T07:37:34.291Z,25.54
2019-06-26T07:40:03.103Z,25.51
2019-06-26T07:42:32.692Z,24.99
2019-06-26T07:45:02.446Z,25.06
2019-06-26T07:47:42.484Z,25.75
2019-06-26T07:50:03.890Z,26.18
2019-06-26T07:52:33.912Z,26.12
2019-06-26T07:55:04.485Z,26.20
2019-06-26T07:57:34.299Z,26.52
2019-06-26T08:00:05.190Z,26.48
2019-06-26T08:02:35.193Z,26.78
2019-06-26T08:05:05.879Z,27.71
2019-06-26T08:08:19.231Z,27.85
2019-06-26T08:10:48.949Z,28.00
2019-06-26T08:13:18.797Z,27.60
2019-06-26T08:15:48.748Z,27.05
2019-06-26T08:18:18.594Z,26.95
2019-06-26T08:21:07.288Z,27.23
2019-06-26T08:23:22.195Z,26.55
2019-06-26T08:25:52.094Z,25.76
2019-06-26T08:28:22.153Z,25.97
2019-06-26T08:30:52.001Z,26.44
2019-06-26T08:33:21.717Z,26.35
2019-06-26T08:35:51.708Z,25.45
2019-06-26T08:38:22.612Z,25.97
2019-06-26T08:40:52.542Z,26.02
2019-06-26T08:43:22.525Z,26.23
2019-06-26T08:45:53.385Z,25.53
2019-06-26T08:48:39.143Z,25.39
2019-06-26T08:50:54.817Z,25.04
2019-06-26T08:53:24.520Z,24.92
2019-06-26T08:55:54.470Z,26.03
2019-06-26T08:58:26.375Z,25.56
2019-06-26T09:00:56.094Z,25.01
2019-06-26T09:03:25.039Z,24.49
2019-06-26T09:05:54.619Z,24.13
2019-06-26T09:08:24.911Z,23.16
2019-06-26T09:10:54.897Z,23.42
2019-06-26T09:13:24.818Z,23.96
2019-06-26T09:15:54.657Z,23.43
2019-06-26T09:18:34.808Z,23.35
2019-06-26T09:20:57.784Z,24.17
2019-06-26T09:23:30.955Z,23.77
2019-06-26T09:25:59.202Z,22.98
2019-06-26T09:28:29.154Z,22.29
2019-06-26T09:30:59.246Z,22.50
2019-06-26T09:33:32.253Z,22.54
2019-06-26T09:36:00.785Z,23.12
2019-06-26T09:38:30.746Z,22.65
2019-06-26T09:41:01.058Z,23.41
2019-06-26T09:43:30.885Z,23.45
2019-06-26T09:46:00.709Z,23.42
2019-06-26T09:48:30.592Z,23.24
2019-06-26T09:51:00.520Z,22.88
2019-06-26T09:53:46.064Z,22.20
2019-06-26T09:56:02.000Z,21.66
2019-06-26T09:58:31.793Z,21.46
2019-06-26T10:01:01.713Z,21.12
2019-06-26T10:03:31.759Z,21.92
2019-06-26T10:06:01.466Z,21.25
2019-06-26T10:08:33.937Z,21.57
2019-06-26T10:11:03.736Z,22.24
2019-06-26T10:13:33.902Z,21.44
2019-06-26T10:16:03.620Z,21.48
2019-06-26T10:18:35.369Z,22.10
2019-06-26T10:21:05.080Z,21.47
2019-06-26T10:23:35.009Z,21.70
2019-06-26T10:26:04.778Z,22.20
2019-06-26T10:28:34.575Z,22.41
2019-06-26T10:31:04.570Z,22.58
2019-06-26T10:33:34.396Z,22.36
2019-06-26T10:36:04.258Z,22.59
2019-06-26T10:38:34.151Z,22.24
2019-06-26T10:41:04.020Z,21.71
2019-06-26T10:43:33.838Z,21.93
2019-06-26T10:46:03.730Z,21.41
2019-06-26T10:48:33.530Z,22.14
2019-06-26T10:51:03.383Z,23.39
2019-06-26T10:53:33.773Z,23.72
2019-06-26T10:56:03.655Z,23.30
2019-06-26T10:58:33.375Z,22.95
2019-06-26T11:01:03.352Z,23.00
2019-06-26T11:03:33.184Z,23.86
2019-06-26T11:06:03.020Z,24.26
2019-06-26T11:08:32.897Z,24.09
2019-06-26T11:11:03.090Z,23.95
2019-06-26T11:13:32.924Z,23.78
2019-06-26T11:16:02.646Z,24.87
2019-06-26T11:18:32.417Z,23.88
2019-06-26T11:21:02.147Z,23.27
2019-06-26T11:23:32.203Z,23.15
2019-06-26T11:26:02.040Z,22.52
2019-06-26T11:28:31.962Z,22.98
2019-06-26T11:31:01.878Z,23.93
2019-06-26T11:33:31.718Z,24.50
2019-06-26T11:36:01.656Z,23.68
2019-06-26T11:38:31.687Z,25.08
2019-06-26T11:41:02.110Z,25.14
2019-06-26T11:43:32.276Z,24.29
2019-06-26T11:46:02.360Z,23.21
2019-06-26T11:48:34.505Z,22.52
2019-06-26T11:51:04.511Z,23.17
2019-06-26T11:53:34.507Z,22.17
2019-06-26T11:56:05.031Z,21.54
2019-06-26T11:58:34.902Z,22.66
2019-06-26T12:01:04.809Z,22.97
2019-06-26T12:03:34.979Z,22.74
2019-06-26T12:06:18.010Z,22.51
2019-06-26T12:08:36.473Z,22.32
2019-06-26T12:11:06.298Z,21.86
2019-06-26T12:13:36.276Z,22.25
2019-06-26T12:16:08.812Z,22.97
2019-06-26T12:18:38.747Z,21.86
2019-06-26T12:21:08.730Z,20.77
2019-06-26T12:23:38.676Z,21.03
2019-06-26T12:26:08.670Z,21.38
2019-06-26T12:28:38.575Z,20.65
2019-06-26T12:31:09.036Z,19.46
2019-06-26T12:33:39.628Z,20.38
2019-06-26T12:36:09.509Z,20.63
2019-06-26T12:38:39.253Z,20.76
2019-06-26T12:41:09.079Z,20.91
2019-06-26T12:43:39.520Z,21.59
2019-06-26T12:46:11.097Z,22.49
2019-06-26T12:48:41.222Z,23.81
2019-06-26T12:51:11.231Z,24.53
2019-06-26T12:53:41.040Z,24.62
2019-06-26T12:56:10.836Z,24.80
2019-06-26T12:58:40.551Z,25.71
2019-06-26T13:01:10.364Z,26.30
2019-06-26T13:03:42.048Z,27.30
2019-06-26T13:06:11.964Z,26.48
2019-06-26T13:08:41.768Z,27.32
2019-06-26T13:11:11.566Z,26.92
2019-06-26T13:13:41.448Z,26.55
2019-06-26T13:16:11.233Z,24.63
2019-06-26T13:18:41.035Z,23.84
2019-06-26T13:21:17.581Z,25.00
2019-06-26T13:23:48.949Z,24.93
2019-06-26T13:26:19.035Z,25.14
2019-06-26T13:28:48.763Z,26.40
2019-06-26T13:31:18.744Z,25.99
2019-06-26T13:33:48.423Z,25.42
2019-06-26T13:36:18.437Z,26.34
2019-06-26T13:38:50.476Z,27.32
2019-06-26T13:41:20.202Z,27.23
2019-06-26T13:43:50.473Z,26.64
2019-06-26T13:46:20.283Z,27.77
2019-06-26T13:48:50.231Z,29.67
2019-06-26T13:51:21.685Z,27.95
2019-06-26T13:53:53.098Z,26.82
2019-06-26T13:56:22.820Z,29.67
2019-06-26T13:58:52.771Z,29.35
2019-06-26T14:01:23.296Z,29.15
2019-06-26T14:03:53.104Z,29.03
2019-06-26T14:06:22.827Z,29.59
2019-06-26T14:08:52.853Z,29.71
2019-06-26T14:11:22.604Z,29.81
2019-06-26T14:13:52.315Z,30.70
2019-06-26T14:16:22.052Z,29.83
2019-06-26T14:18:51.763Z,29.80
2019-06-26T14:21:25.984Z,30.40
2019-06-26T14:23:52.938Z,31.18
2019-06-26T14:26:22.648Z,30.67
2019-06-26T14:28:54.058Z,31.10
2019-06-26T14:31:24.045Z,30.76
2019-06-26T14:33:53.823Z,30.45
2019-06-26T14:36:23.668Z,30.82
2019-06-26T14:38:53.343Z,31.39
2019-06-26T14:41:23.162Z,31.00
2019-06-26T14:43:53.092Z,31.48
2019-06-26T14:46:23.921Z,30.41
2019-06-26T14:48:53.725Z,30.49
2019-06-26T14:51:23.811Z,30.56
2019-06-26T14:53:53.898Z,31.00
2019-06-26T14:56:23.606Z,30.22
2019-06-26T14:58:53.316Z,30.86
2019-06-26T15:01:23.446Z,30.48
2019-06-26T15:03:53.145Z,30.09
2019-06-26T15:06:23.066Z,30.41
2019-06-26T15:08:59.147Z,30.23
2019-06-26T15:11:28.867Z,30.14
2019-06-26T15:13:58.738Z,30.35
2019-06-26T15:16:30.508Z,30.70
2019-06-26T15:19:00.273Z,30.04
2019-06-26T15:21:30.636Z,30.52
2019-06-26T15:24:02.837Z,30.85
2019-06-26T15:26:37.762Z,30.61
2019-06-26T15:29:09.063Z,30.68
2019-06-26T15:31:38.900Z,31.01
2019-06-26T15:34:08.615Z,31.17
2019-06-26T15:36:38.379Z,30.07
2019-06-26T15:39:08.423Z,30.41
2019-06-26T15:41:38.208Z,30.58
2019-06-26T15:44:08.011Z,30.29
2019-06-26T15:46:37.834Z,30.80
2019-06-26T15:49:07.537Z,31.34
2019-06-26T15:51:37.797Z,31.47
2019-06-26T15:54:09.369Z,31.67
2019-06-26T15:56:39.426Z,31.87
2019-06-26T15:59:09.119Z,31.88
2019-06-26T16:01:44.360Z,32.00
2019-06-26T16:04:14.122Z,32.20
2019-06-26T16:06:44.982Z,32.79
2019-06-26T16:09:13.979Z,32.52
2019-06-26T16:11:42.967Z,32.19
2019-06-26T16:14:12.125Z,33.01
2019-06-26T16:16:42.735Z,32.45
2019-06-26T16:19:19.049Z,33.02
2019-06-26T16:21:48.763Z,33.31
2019-06-26T16:24:17.992Z,33.35
2019-06-26T16:26:48.169Z,33.30
2019-06-26T16:29:17.578Z,33.91
2019-06-26T16:31:47.801Z,34.43
2019-06-26T16:34:17.831Z,34.92
2019-06-26T16:36:46.793Z,35.33
2019-06-26T16:39:15.699Z,35.35
2019-06-26T16:41:44.503Z,35.54
2019-06-26T16:44:13.299Z,36.19
2019-06-26T16:46:42.224Z,35.84
2019-06-26T16:49:10.961Z,36.13
2019-06-26T16:51:39.724Z,36.49
2019-06-26T16:54:08.675Z,36.28
2019-06-26T16:56:37.755Z,36.44
2019-06-26T16:59:06.517Z,36.45
2019-06-26T17:01:35.490Z,36.79
2019-06-26T17:04:04.646Z,37.31
2019-06-26T17:06:33.457Z,37.41
2019-06-26T17:09:02.352Z,37.38
2019-06-26T17:11:33.907Z,37.41
2019-06-26T17:14:03.984Z,36.92
2019-06-26T17:16:33.822Z,36.98
2019-06-26T17:19:03.743Z,37.80
2019-06-26T17:21:33.685Z,37.97
2019-06-26T17:24:03.588Z,38.88
2019-06-26T17:26:33.478Z,39.34
2019-06-26T17:29:02.513Z,39.91
2019-06-26T17:31:32.261Z,40.49
2019-06-26T17:34:02.033Z,40.98
2019-06-26T17:36:32.760Z,41.31
2019-06-26T17:39:02.700Z,41.71
2019-06-26T17:41:33.254Z,41.88
2019-06-26T17:44:02.989Z,42.07
2019-06-26T17:46:32.031Z,41.79
2019-06-26T17:49:00.781Z,41.97
2019-06-26T17:51:29.650Z,42.58
2019-06-26T17:53:58.569Z,42.73
2019-06-26T17:56:27.431Z,42.94
2019-06-26T17:58:56.432Z,42.64
2019-06-26T18:01:26.316Z,42.68
2019-06-26T18:03:56.495Z,42.77
2019-06-26T18:06:26.277Z,42.67
2019-06-26T18:08:56.038Z,42.11
2019-06-26T18:11:25.744Z,41.73
2019-06-26T18:13:55.639Z,40.03
2019-06-26T18:16:25.520Z,39.43
2019-06-26T18:18:55.605Z,39.06
2019-06-26T18:21:28.639Z,38.60
2019-06-26T18:23:59.149Z,38.40
2019-06-26T18:26:29.277Z,38.55
2019-06-26T18:28:59.024Z,38.31
2019-06-26T18:31:30.682Z,38.97
2019-06-26T18:34:00.188Z,38.81
2019-06-26T18:36:33.390Z,38.72
2019-06-26T18:39:01.364Z,38.54
2019-06-26T18:41:31.741Z,38.71
2019-06-26T18:44:01.468Z,39.19
2019-06-26T18:46:31.177Z,39.08
2019-06-26T18:49:00.942Z,39.28
2019-06-26T18:51:30.753Z,39.66
2019-06-26T18:54:01.199Z,40.10
2019-06-26T18:56:31.078Z,40.31
2019-06-26T18:59:00.850Z,40.51
2019-06-26T19:01:30.879Z,40.70
2019-06-26T19:03:59.776Z,40.82
2019-06-26T19:06:28.712Z,41.08
2019-06-26T19:08:58.551Z,41.49
2019-06-26T19:11:27.274Z,41.89
2019-06-26T19:13:56.054Z,42.25
2019-06-26T19:16:24.773Z,42.65
2019-06-26T19:18:53.696Z,42.81
2019-06-26T19:21:22.627Z,43.16
2019-06-26T19:23:51.495Z,43.13
2019-06-26T19:26:23.279Z,43.49
2019-06-26T19:28:52.046Z,43.68
2019-06-26T19:31:20.838Z,43.47
2019-06-26T19:33:49.694Z,43.53
2019-06-26T19:36:21.735Z,43.57
2019-06-26T19:38:51.191Z,43.40
2019-06-26T19:41:20.975Z,43.27
2019-06-26T19:43:51.017Z,42.84
2019-06-26T19:46:20.691Z,43.15
2019-06-26T19:48:50.409Z,43.01
2019-06-26T19:51:20.130Z,42.37
2019-06-26T19:53:49.849Z,42.46
2019-06-26T19:56:20.288Z,42.64
2019-06-26T19:58:50.046Z,42.47
2019-06-26T20:01:19.754Z,42.52
2019-06-26T20:03:49.445Z,42.28
2019-06-26T20:06:19.250Z,42.88
2019-06-26T20:08:56.181Z,43.12
2019-06-26T20:11:21.512Z,43.14
2019-06-26T20:13:51.212Z,43.61
2019-06-26T20:16:21.080Z,43.75
2019-06-26T20:18:50.821Z,44.20
2019-06-26T20:21:20.678Z,44.64
2019-06-26T20:23:50.412Z,45.03
2019-06-26T20:26:20.135Z,45.55
2019-06-26T20:28:49.007Z,45.94
2019-06-26T20:31:18.112Z,46.36
2019-06-26T20:33:46.845Z,46.65
2019-06-26T20:36:17.522Z,46.93
2019-06-26T20:38:48.172Z,46.97
2019-06-26T20:41:18.032Z,47.37
2019-06-26T20:43:48.105Z,47.67
2019-06-26T20:46:16.983Z,48.01
2019-06-26T20:48:45.712Z,48.29
2019-06-26T20:51:14.476Z,48.22
2019-06-26T20:53:44.246Z,48.33
2019-06-26T20:56:13.128Z,48.85
2019-06-26T20:58:42.004Z,49.36
2019-06-26T21:01:10.754Z,49.92
2019-06-26T21:03:39.503Z,50.60
2019-06-26T21:06:10.053Z,50.96
2019-06-26T21:08:39.778Z,51.43
2019-06-26T21:11:09.481Z,52.14
2019-06-26T21:13:39.218Z,52.65
2019-06-26T21:16:08.923Z,53.09
2019-06-26T21:18:37.775Z,53.82
2019-06-26T21:21:06.524Z,54.29
2019-06-26T21:23:35.288Z,54.78
2019-06-26T21:26:04.012Z,56.43
2019-06-26T21:28:32.793Z,56.43
2019-06-26T21:31:01.640Z,57.15
2019-06-26T21:33:31.415Z,57.50
2019-06-26T21:36:01.187Z,57.68
2019-06-26T21:38:30.059Z,57.99
2019-06-26T21:40:59.696Z,58.38
2019-06-26T21:43:29.446Z,58.67
2019-06-26T21:45:58.323Z,59.15
2019-06-26T21:48:27.073Z,59.73
2019-06-26T21:50:55.862Z,60.26
2019-06-26T21:53:24.683Z,60.45
2019-06-26T21:56:11.205Z,60.95
2019-06-26T21:58:57.978Z,61.01
2019-06-26T22:01:45.680Z,60.73
2019-06-26T22:04:32.748Z,60.56
2019-06-26T22:07:09.246Z,60.72
2019-06-26T22:09:39.879Z,60.90
2019-06-26T22:12:09.064Z,61.16
2019-06-26T22:14:37.797Z,61.42
2019-06-26T22:17:07.678Z,61.31
2019-06-26T22:19:37.396Z,61.83
2019-06-26T22:22:07.107Z,61.98
2019-06-26T22:24:36.920Z,61.84
2019-06-26T22:27:06.636Z,62.30
2019-06-26T22:29:36.340Z,62.69
2019-06-26T22:32:06.074Z,62.75
2019-06-26T22:34:35.931Z,62.93
2019-06-26T22:37:05.720Z,63.27
2019-06-26T22:39:35.412Z,63.50
2019-06-26T22:42:05.205Z,63.70
2019-06-26T22:44:34.968Z,63.81
2019-06-26T22:47:04.684Z,64.16
2019-06-26T22:49:34.378Z,64.46
2019-06-26T22:52:04.150Z,64.63
2019-06-26T22:54:33.849Z,64.85
2019-06-26T22:57:03.597Z,64.60
2019-06-26T22:59:33.323Z,64.61
2019-06-26T23:02:03.133Z,64.55
2019-06-26T23:04:32.861Z,64.48
2019-06-26T23:07:02.634Z,64.57
2019-06-26T23:09:32.337Z,64.57
2019-06-26T23:12:02.293Z,64.68
2019-06-26T23:14:32.239Z,64.73
2019-06-26T23:17:01.937Z,65.13
2019-06-26T23:19:31.669Z,65.19
2019-06-26T23:22:01.389Z,65.10
2019-06-26T23:24:31.120Z,65.58
2019-06-26T23:27:00.797Z,65.94
2019-06-26T23:29:30.531Z,66.14
2019-06-26T23:32:03.266Z,66.37
2019-06-26T23:34:31.669Z,66.39
2019-06-26T23:37:01.393Z,66.42
2019-06-26T23:39:31.149Z,66.42
2019-06-26T23:42:00.937Z,66.54
2019-06-26T23:44:30.704Z,66.52
2019-06-26T23:47:00.416Z,66.56
2019-06-26T23:49:30.147Z,66.98
2019-06-26T23:51:59.826Z,66.91
2019-06-26T23:54:29.545Z,67.10
2019-06-26T23:56:59.245Z,67.04
2019-06-26T23:59:28.973Z,67.23
